createdAt,value
2019-05-26T00:00:59.933Z,99.90
2019-05-26T00:03:27.679Z,99.90
2019-05-26T00:05:55.324Z,99.90
2019-05-26T00:08:23.059Z,99.90
2019-05-26T00:10:50.715Z,99.90
2019-05-26T00:13:18.664Z,99.90
2019-05-26T00:15:46.303Z,99.90
2019-05-26T00:18:13.950Z,99.90
2019-05-26T00:20:41.704Z,99.90
2019-05-26T00:23:09.346Z,99.90
2019-05-26T00:25:37.059Z,99.90
2019-05-26T00:28:04.761Z,99.90
2019-05-26T00:30:32.474Z,99.90
2019-05-26T00:33:00.175Z,99.90
2019-05-26T00:35:27.852Z,99.90
2019-05-26T00:37:55.512Z,99.90
2019-05-26T00:40:23.324Z,99.90
2019-05-26T00:42:50.967Z,99.90
2019-05-26T00:45:18.969Z,99.90
2019-05-26T00:47:46.624Z,99.90
2019-05-26T00:50:14.671Z,99.90
2019-05-26T00:52:42.365Z,99.90
2019-05-26T00:55:10.307Z,99.90
2019-05-26T00:57:38.322Z,99.90
2019-05-26T01:00:08.992Z,99.90
2019-05-26T01:02:36.635Z,99.90
2019-05-26T01:05:08.168Z,99.90
2019-05-26T01:07:36.681Z,99.90
2019-05-26T01:10:07.663Z,99.90
2019-05-26T01:12:35.312Z,99.90
2019-05-26T01:15:04.668Z,99.90
2019-05-26T01:17:32.317Z,99.90
2019-05-26T01:19:59.993Z,99.90
2019-05-26T01:22:27.639Z,99.90
2019-05-26T01:24:55.324Z,99.90
2019-05-26T01:27:22.973Z,99.90
2019-05-26T01:29:50.649Z,99.90
2019-05-26T01:32:18.295Z,99.90
2019-05-26T01:34:45.966Z,99.90
2019-05-26T01:37:13.755Z,99.90
2019-05-26T01:39:41.691Z,99.90
2019-05-26T01:42:09.378Z,99.90
2019-05-26T01:44:37.421Z,99.90
2019-05-26T01:47:05.064Z,99.90
2019-05-26T01:49:32.707Z,99.90
2019-05-26T01:52:00.397Z,99.90
2019-05-26T01:54:28.035Z,99.90
2019-05-26T01:56:55.715Z,99.90
2019-05-26T01:59:23.361Z,99.90
2019-05-26T02:01:51.048Z,99.90
2019-05-26T02:04:18.683Z,99.90
2019-05-26T02:06:46.359Z,99.90
2019-05-26T02:09:14.010Z,99.90
2019-05-26T02:11:41.683Z,99.90
2019-05-26T02:14:09.435Z,99.90
2019-05-26T02:16:37.450Z,99.90
2019-05-26T02:19:05.088Z,99.90
2019-05-26T02:21:32.768Z,99.90
2019-05-26T02:24:00.479Z,99.90
2019-05-26T02:26:28.164Z,99.90
2019-05-26T02:28:55.808Z,99.90
2019-05-26T02:31:23.493Z,99.90
2019-05-26T02:33:51.131Z,99.90
2019-05-26T02:36:18.886Z,99.90
2019-05-26T02:39:01.386Z,99.90
2019-05-26T02:41:15.942Z,99.90
2019-05-26T02:43:43.572Z,99.90
2019-05-26T02:46:11.255Z,99.90
2019-05-26T02:48:38.896Z,99.90
2019-05-26T02:51:06.572Z,99.90
2019-05-26T02:53:34.539Z,99.90
2019-05-26T02:56:02.217Z,99.90
2019-05-26T02:58:29.852Z,99.90
2019-05-26T03:00:57.734Z,99.90
2019-05-26T03:03:25.712Z,99.90
2019-05-26T03:05:53.775Z,99.90
2019-05-26T03:08:21.512Z,99.90
2019-05-26T03:10:50.801Z,99.90
2019-05-26T03:13:18.505Z,99.90
2019-05-26T03:15:46.822Z,99.90
2019-05-26T03:18:14.984Z,99.90
2019-05-26T03:20:43.747Z,99.90
2019-05-26T03:23:11.424Z,99.90
2019-05-26T03:25:39.233Z,99.90
2019-05-26T03:28:07.393Z,99.90
2019-05-26T03:30:35.417Z,99.90
2019-05-26T03:33:03.232Z,99.90
2019-05-26T03:35:30.869Z,99.90
2019-05-26T03:37:58.555Z,99.90
2019-05-26T03:40:26.679Z,99.90
2019-05-26T03:42:54.366Z,99.90
2019-05-26T03:45:26.273Z,99.90
2019-05-26T03:47:53.956Z,99.90
2019-05-26T03:50:21.937Z,99.90
2019-05-26T03:52:49.615Z,99.90
2019-05-26T03:55:17.271Z,99.90
2019-05-26T03:57:44.950Z,99.90
2019-05-26T04:00:12.936Z,99.90
2019-05-26T04:02:40.692Z,99.90
2019-05-26T04:05:08.704Z,99.90
2019-05-26T04:07:36.415Z,99.90
2019-05-26T04:10:07.525Z,99.90
2019-05-26T04:12:35.527Z,99.90
2019-05-26T04:15:04.537Z,99.90
2019-05-26T04:17:32.225Z,99.90
2019-05-26T04:19:59.864Z,99.90
2019-05-26T04:22:27.615Z,99.90
2019-05-26T04:24:55.277Z,99.90
2019-05-26T04:27:22.948Z,99.90
2019-05-26T04:29:50.592Z,99.90
2019-05-26T04:32:18.238Z,99.90
2019-05-26T04:34:45.923Z,99.90
2019-05-26T04:37:13.568Z,99.90
2019-05-26T04:39:41.246Z,99.90
2019-05-26T04:42:08.892Z,99.90
2019-05-26T04:44:36.572Z,99.90
2019-05-26T04:47:04.288Z,99.90
2019-05-26T04:49:36.892Z,99.90
2019-05-26T04:52:01.341Z,99.90
2019-05-26T04:54:29.022Z,99.90
2019-05-26T04:56:56.748Z,99.90
2019-05-26T04:59:24.417Z,99.90
2019-05-26T05:01:52.057Z,99.90
2019-05-26T05:04:19.743Z,99.90
2019-05-26T05:06:47.393Z,99.90
2019-05-26T05:09:15.067Z,99.90
2019-05-26T05:11:42.716Z,99.90
2019-05-26T05:14:10.394Z,99.90
2019-05-26T05:16:38.039Z,99.90
2019-05-26T05:19:05.722Z,99.90
2019-05-26T05:21:33.372Z,99.90
2019-05-26T05:24:01.047Z,99.90
2019-05-26T05:26:28.969Z,99.90
2019-05-26T05:28:56.640Z,99.90
2019-05-26T05:31:24.293Z,99.90
2019-05-26T05:33:51.967Z,99.90
2019-05-26T05:36:19.611Z,99.90
2019-05-26T05:38:47.289Z,99.90
2019-05-26T05:41:14.940Z,99.90
2019-05-26T05:43:42.911Z,99.90
2019-05-26T05:46:10.622Z,99.90
2019-05-26T05:48:38.309Z,99.90
2019-05-26T05:51:06.212Z,99.90
2019-05-26T05:53:33.855Z,99.90
2019-05-26T05:56:01.576Z,99.90
2019-05-26T05:58:29.596Z,99.90
2019-05-26T06:00:57.281Z,99.90
2019-05-26T06:03:25.232Z,99.90
2019-05-26T06:05:52.915Z,99.90
2019-05-26T06:08:20.653Z,99.90
2019-05-26T06:10:48.327Z,99.90
2019-05-26T06:13:15.976Z,99.90
2019-05-26T06:15:43.657Z,99.90
2019-05-26T06:18:11.297Z,99.90
2019-05-26T06:20:38.978Z,99.90
2019-05-26T06:23:06.643Z,99.90
2019-05-26T06:25:34.324Z,99.90
2019-05-26T06:28:02.027Z,99.90
2019-05-26T06:30:29.781Z,99.90
2019-05-26T06:32:57.407Z,99.90
2019-05-26T06:35:25.091Z,99.90
2019-05-26T06:37:52.815Z,99.90
2019-05-26T06:40:20.554Z,99.90
2019-05-26T06:42:48.196Z,99.90
2019-05-26T06:45:16.147Z,99.90
2019-05-26T06:47:43.795Z,99.90
2019-05-26T06:50:11.756Z,99.90
2019-05-26T06:52:39.387Z,99.90
2019-05-26T06:55:07.687Z,99.90
2019-05-26T06:57:35.328Z,99.90
2019-05-26T07:00:03.892Z,99.90
2019-05-26T07:02:31.524Z,99.90
2019-05-26T07:04:59.206Z,99.90
2019-05-26T07:07:26.847Z,99.90
2019-05-26T07:09:54.887Z,99.90
2019-05-26T07:12:22.530Z,99.90
2019-05-26T07:14:50.169Z,99.90
2019-05-26T07:17:20.454Z,99.90
2019-05-26T07:19:47.227Z,99.90
2019-05-26T07:22:14.913Z,99.90
2019-05-26T07:24:42.564Z,99.90
2019-05-26T07:27:10.252Z,99.90
2019-05-26T07:29:37.887Z,99.90
2019-05-26T07:32:05.568Z,99.90
2019-05-26T07:34:33.217Z,99.90
2019-05-26T07:37:00.896Z,99.90
2019-05-26T07:39:28.538Z,99.90
2019-05-26T07:42:09.183Z,99.90
2019-05-26T07:44:25.595Z,99.90
2019-05-26T07:46:53.280Z,99.90
2019-05-26T07:49:20.920Z,99.90
2019-05-26T07:51:48.615Z,99.90
2019-05-26T07:54:24.989Z,99.90
2019-05-26T07:56:45.667Z,99.90
2019-05-26T07:59:13.312Z,99.90
2019-05-26T08:01:41.329Z,99.90
2019-05-26T08:04:08.967Z,99.90
2019-05-26T08:06:36.655Z,99.90
2019-05-26T08:09:06.178Z,99.60
2019-05-26T08:11:34.144Z,99.40
2019-05-26T08:14:02.110Z,99.20
2019-05-26T08:16:30.068Z,99.30
2019-05-26T08:18:57.708Z,98.60
2019-05-26T08:21:25.400Z,98.80
2019-05-26T08:23:53.044Z,98.30
2019-05-26T08:26:20.729Z,99.00
2019-05-26T08:28:48.370Z,99.20
2019-05-26T08:31:16.016Z,98.20
2019-05-26T08:33:43.695Z,97.90
2019-05-26T08:36:11.344Z,98.60
2019-05-26T08:38:39.032Z,96.90
2019-05-26T08:41:06.734Z,97.10
2019-05-26T08:43:34.435Z,95.80
2019-05-26T08:46:02.428Z,96.30
2019-05-26T08:48:30.114Z,95.80
2019-05-26T08:50:57.765Z,94.80
2019-05-26T08:53:25.452Z,93.40
2019-05-26T08:55:53.337Z,92.90
2019-05-26T08:58:21.015Z,92.70
2019-05-26T09:00:48.655Z,94.40
2019-05-26T09:03:16.335Z,92.70
2019-05-26T09:05:43.984Z,92.10
2019-05-26T09:08:11.666Z,92.90
2019-05-26T09:10:39.313Z,92.70
2019-05-26T09:13:06.982Z,92.20
2019-05-26T09:15:34.631Z,90.70
2019-05-26T09:18:02.318Z,93.00
2019-05-26T09:20:29.961Z,91.10
2019-05-26T09:22:57.648Z,90.70
2019-05-26T09:25:25.286Z,90.90
2019-05-26T09:27:53.212Z,88.90
2019-05-26T09:30:20.977Z,91.00
2019-05-26T09:32:48.651Z,90.50
2019-05-26T09:35:16.666Z,90.40
2019-05-26T09:37:44.313Z,90.30
2019-05-26T09:40:12.491Z,90.60
2019-05-26T09:42:40.134Z,90.20
2019-05-26T09:45:08.292Z,91.70
2019-05-26T09:47:35.950Z,90.70
2019-05-26T09:50:05.096Z,90.40
2019-05-26T09:52:32.746Z,90.10
2019-05-26T09:55:00.423Z,90.20
2019-05-26T09:57:28.067Z,91.20
2019-05-26T09:59:55.757Z,90.30
2019-05-26T10:02:23.398Z,90.70
2019-05-26T10:04:51.415Z,91.30
2019-05-26T10:07:19.131Z,91.10
2019-05-26T10:09:46.815Z,89.40
2019-05-26T10:12:14.465Z,89.70
2019-05-26T10:14:42.144Z,91.10
2019-05-26T10:17:09.968Z,89.00
2019-05-26T10:19:37.667Z,89.10
2019-05-26T10:22:05.320Z,90.60
2019-05-26T10:24:32.999Z,88.30
2019-05-26T10:27:00.639Z,89.10
2019-05-26T10:29:28.319Z,89.00
2019-05-26T10:31:55.977Z,89.90
2019-05-26T10:34:23.655Z,90.00
2019-05-26T10:36:51.304Z,86.60
2019-05-26T10:39:18.979Z,90.20
2019-05-26T10:41:46.700Z,88.40
2019-05-26T10:44:14.386Z,90.30
2019-05-26T10:46:42.023Z,90.10
2019-05-26T10:49:09.713Z,87.10
2019-05-26T10:51:37.356Z,90.00
2019-05-26T10:54:05.067Z,85.30
2019-05-26T10:56:32.822Z,90.30
2019-05-26T10:59:00.467Z,89.50
2019-05-26T11:01:28.151Z,85.40
2019-05-26T11:03:55.786Z,86.70
2019-05-26T11:06:23.501Z,85.70
2019-05-26T11:08:51.189Z,86.50
2019-05-26T11:11:18.869Z,84.40
2019-05-26T11:14:00.034Z,84.80
2019-05-26T11:16:15.919Z,86.60
2019-05-26T11:18:43.563Z,87.30
2019-05-26T11:21:12.460Z,86.10
2019-05-26T11:23:40.372Z,85.40
2019-05-26T11:26:08.052Z,82.40
2019-05-26T11:28:35.704Z,86.20
2019-05-26T11:31:03.389Z,84.70
2019-05-26T11:33:31.056Z,84.20
2019-05-26T11:35:58.791Z,85.00
2019-05-26T11:38:26.547Z,84.80
2019-05-26T11:40:54.252Z,82.10
2019-05-26T11:43:24.307Z,84.50
2019-05-26T11:45:51.997Z,84.50
2019-05-26T11:48:19.648Z,82.10
2019-05-26T11:50:49.186Z,82.10
2019-05-26T11:53:16.865Z,83.80
2019-05-26T11:55:44.538Z,80.20
2019-05-26T11:58:12.491Z,82.00
2019-05-26T12:00:40.640Z,82.30
2019-05-26T12:03:08.279Z,82.40
2019-05-26T12:05:35.967Z,81.80
2019-05-26T12:08:03.783Z,82.30
2019-05-26T12:10:31.468Z,82.90
2019-05-26T12:12:59.124Z,77.60
2019-05-26T12:15:26.875Z,78.20
2019-05-26T12:17:54.519Z,79.10
2019-05-26T12:20:22.199Z,79.50
2019-05-26T12:22:49.843Z,79.90
2019-05-26T12:25:17.562Z,82.30
2019-05-26T12:27:45.208Z,80.70
2019-05-26T12:30:13.229Z,82.00
2019-05-26T12:32:41.203Z,79.40
2019-05-26T12:35:09.390Z,76.20
2019-05-26T12:37:37.063Z,77.20
2019-05-26T12:40:07.616Z,76.90
2019-05-26T12:42:35.299Z,77.80
2019-05-26T12:45:03.415Z,77.40
2019-05-26T12:47:31.101Z,79.70
2019-05-26T12:49:59.044Z,76.60
2019-05-26T12:52:26.788Z,77.50
2019-05-26T12:54:54.431Z,76.20
2019-05-26T12:57:22.363Z,76.90
2019-05-26T12:59:50.312Z,75.50
2019-05-26T13:02:17.991Z,75.10
2019-05-26T13:04:45.632Z,77.10
2019-05-26T13:07:13.347Z,76.40
2019-05-26T13:09:41.002Z,74.90
2019-05-26T13:12:08.636Z,78.20
2019-05-26T13:14:36.638Z,75.80
2019-05-26T13:17:04.373Z,75.70
2019-05-26T13:19:32.052Z,74.60
2019-05-26T13:21:59.698Z,75.00
2019-05-26T13:24:27.381Z,74.10
2019-05-26T13:26:55.032Z,76.50
2019-05-26T13:29:25.639Z,75.90
2019-05-26T13:31:52.088Z,77.50
2019-05-26T13:34:19.764Z,76.20
2019-05-26T13:36:49.684Z,74.90
2019-05-26T13:39:17.363Z,75.60
2019-05-26T13:41:45.011Z,73.50
2019-05-26T13:44:12.726Z,74.80
2019-05-26T13:46:40.375Z,74.10
2019-05-26T13:49:08.051Z,75.70
2019-05-26T13:51:35.690Z,74.00
2019-05-26T13:54:03.380Z,74.70
2019-05-26T13:56:31.020Z,75.10
2019-05-26T13:58:58.698Z,73.90
2019-05-26T14:01:27.883Z,74.70
2019-05-26T14:03:55.569Z,75.40
2019-05-26T14:06:23.211Z,72.10
2019-05-26T14:08:51.257Z,70.90
2019-05-26T14:11:19.720Z,72.10
2019-05-26T14:13:47.768Z,75.20
2019-05-26T14:16:16.158Z,70.90
2019-05-26T14:18:45.499Z,74.00
2019-05-26T14:21:17.583Z,70.70
2019-05-26T14:23:45.271Z,70.30
2019-05-26T14:26:12.916Z,70.30
2019-05-26T14:28:40.558Z,70.70
2019-05-26T14:31:08.235Z,71.60
2019-05-26T14:33:36.233Z,71.90
2019-05-26T14:36:04.503Z,72.60
2019-05-26T14:38:42.874Z,70.50
2019-05-26T14:41:01.619Z,69.50
2019-05-26T14:43:29.263Z,70.40
2019-05-26T14:45:57.205Z,68.40
2019-05-26T14:48:25.092Z,69.70
2019-05-26T14:50:53.041Z,66.20
2019-05-26T14:53:20.699Z,71.50
2019-05-26T14:55:48.442Z,71.10
2019-05-26T14:58:16.865Z,69.70
2019-05-26T15:00:44.652Z,71.20
2019-05-26T15:03:12.316Z,67.80
2019-05-26T15:05:39.996Z,68.10
2019-05-26T15:08:07.643Z,69.40
2019-05-26T15:10:35.328Z,69.70
2019-05-26T15:13:02.968Z,71.80
2019-05-26T15:15:30.719Z,74.70
2019-05-26T15:17:58.374Z,71.30
2019-05-26T15:20:26.047Z,73.40
2019-05-26T15:22:53.686Z,69.70
2019-05-26T15:25:21.377Z,72.10
2019-05-26T15:27:49.029Z,74.10
2019-05-26T15:30:16.881Z,72.00
2019-05-26T15:32:44.848Z,72.00
2019-05-26T15:35:12.697Z,72.60
2019-05-26T15:37:40.441Z,70.90
2019-05-26T15:40:08.449Z,71.50
2019-05-26T15:42:36.420Z,68.70
2019-05-26T15:45:05.635Z,66.80
2019-05-26T15:47:33.277Z,69.20
2019-05-26T15:50:00.968Z,68.20
2019-05-26T15:52:28.616Z,68.00
2019-05-26T15:54:56.306Z,66.40
2019-05-26T15:57:24.019Z,68.10
2019-05-26T15:59:54.480Z,66.00
2019-05-26T16:02:21.115Z,67.00
2019-05-26T16:04:48.803Z,64.80
2019-05-26T16:07:16.448Z,66.00
2019-05-26T16:09:44.131Z,65.00
2019-05-26T16:12:11.784Z,67.60
2019-05-26T16:14:39.425Z,66.30
2019-05-26T16:17:07.117Z,67.50
2019-05-26T16:19:35.051Z,66.60
2019-05-26T16:22:02.739Z,68.40
2019-05-26T16:24:30.450Z,66.00
2019-05-26T16:27:00.573Z,65.50
2019-05-26T16:29:27.501Z,66.60
2019-05-26T16:31:55.175Z,63.50
2019-05-26T16:34:22.820Z,67.40
2019-05-26T16:36:50.503Z,67.00
2019-05-26T16:39:18.168Z,69.00
2019-05-26T16:41:45.847Z,70.00
2019-05-26T16:44:13.487Z,68.90
2019-05-26T16:46:55.207Z,69.00
2019-05-26T16:49:10.532Z,69.50
2019-05-26T16:51:38.212Z,70.50
2019-05-26T16:54:05.861Z,71.40
2019-05-26T16:56:33.543Z,73.50
2019-05-26T16:59:01.191Z,73.30
2019-05-26T17:01:28.883Z,73.00
2019-05-26T17:03:56.523Z,76.00
2019-05-26T17:06:24.208Z,76.40
2019-05-26T17:08:51.913Z,76.20
2019-05-26T17:11:19.592Z,75.60
2019-05-26T17:13:47.236Z,75.60
2019-05-26T17:16:14.918Z,72.00
2019-05-26T17:18:42.585Z,70.70
2019-05-26T17:21:10.251Z,73.50
2019-05-26T17:23:37.891Z,73.60
2019-05-26T17:26:05.572Z,72.50
2019-05-26T17:28:33.238Z,69.50
2019-05-26T17:31:00.904Z,70.80
2019-05-26T17:33:31.316Z,70.20
2019-05-26T17:35:59.034Z,70.90
2019-05-26T17:38:27.145Z,71.20
2019-05-26T17:40:54.889Z,70.50
2019-05-26T17:43:22.940Z,70.30
2019-05-26T17:45:50.634Z,71.00
2019-05-26T17:48:22.065Z,72.70
2019-05-26T17:50:50.855Z,73.00
2019-05-26T17:53:18.612Z,74.20
2019-05-26T17:55:46.424Z,75.00
2019-05-26T17:58:14.076Z,75.10
2019-05-26T18:00:41.771Z,76.80
2019-05-26T18:03:09.620Z,78.20
2019-05-26T18:05:39.670Z,79.90
2019-05-26T18:08:07.527Z,80.40
2019-05-26T18:10:35.167Z,80.40
2019-05-26T18:13:03.003Z,79.90
2019-05-26T18:15:30.648Z,78.50
2019-05-26T18:17:58.631Z,79.80
2019-05-26T18:20:26.280Z,80.50
2019-05-26T18:22:54.017Z,82.40
2019-05-26T18:25:21.725Z,82.90
2019-05-26T18:27:49.540Z,83.30
2019-05-26T18:30:17.350Z,84.20
2019-05-26T18:32:45.120Z,85.20
2019-05-26T18:35:13.037Z,87.30
2019-05-26T18:37:40.748Z,89.40
2019-05-26T18:40:08.462Z,90.60
2019-05-26T18:42:36.160Z,90.90
2019-05-26T18:45:05.555Z,90.60
2019-05-26T18:47:33.255Z,90.80
2019-05-26T18:50:00.900Z,91.20
2019-05-26T18:52:28.606Z,91.00
2019-05-26T18:54:56.255Z,91.50
2019-05-26T18:57:24.283Z,92.20
2019-05-26T18:59:51.937Z,92.20
2019-05-26T19:02:19.631Z,92.20
2019-05-26T19:04:47.341Z,92.30
2019-05-26T19:07:15.037Z,92.40
2019-05-26T19:09:42.753Z,92.40
2019-05-26T19:12:10.517Z,93.00
2019-05-26T19:14:38.160Z,93.80
2019-05-26T19:17:05.962Z,93.60
2019-05-26T19:19:33.731Z,93.60
2019-05-26T19:22:01.436Z,93.60
2019-05-26T19:24:29.079Z,93.70
2019-05-26T19:26:57.062Z,94.40
2019-05-26T19:29:25.015Z,94.30
2019-05-26T19:31:52.719Z,94.60
2019-05-26T19:34:20.608Z,94.60
2019-05-26T19:36:48.623Z,94.50
2019-05-26T19:39:16.266Z,94.70
2019-05-26T19:41:43.951Z,94.60
2019-05-26T19:44:11.591Z,94.80
2019-05-26T19:46:39.376Z,94.90
2019-05-26T19:49:07.124Z,95.00
2019-05-26T19:51:34.808Z,95.20
2019-05-26T19:54:02.447Z,95.30
2019-05-26T19:56:30.094Z,95.30
2019-05-26T19:58:58.200Z,95.40
2019-05-26T20:01:25.887Z,95.20
2019-05-26T20:03:53.606Z,95.30
2019-05-26T20:06:21.256Z,95.30
2019-05-26T20:08:49.187Z,95.90
2019-05-26T20:11:16.843Z,95.90
2019-05-26T20:13:44.526Z,96.30
2019-05-26T20:16:12.251Z,96.40
2019-05-26T20:18:39.943Z,96.20
2019-05-26T20:21:07.880Z,96.30
2019-05-26T20:23:35.567Z,96.60
2019-05-26T20:26:03.221Z,96.60
2019-05-26T20:28:30.904Z,96.70
2019-05-26T20:30:58.580Z,96.90
2019-05-26T20:33:26.255Z,96.90
2019-05-26T20:35:54.165Z,97.10
2019-05-26T20:38:21.862Z,97.20
2019-05-26T20:40:49.494Z,97.00
2019-05-26T20:43:17.183Z,97.00
2019-05-26T20:45:44.833Z,97.20
2019-05-26T20:48:12.783Z,97.30
2019-05-26T20:50:40.443Z,97.70
2019-05-26T20:53:08.140Z,97.70
2019-05-26T20:55:36.080Z,97.40
2019-05-26T20:58:03.789Z,97.50
2019-05-26T21:00:31.509Z,97.90
2019-05-26T21:02:59.207Z,97.80
2019-05-26T21:05:26.916Z,97.80
2019-05-26T21:07:54.604Z,98.10
2019-05-26T21:10:22.243Z,97.70
2019-05-26T21:12:50.005Z,98.20
2019-05-26T21:15:17.644Z,98.40
2019-05-26T21:17:45.395Z,98.20
2019-05-26T21:20:13.830Z,98.40
2019-05-26T21:23:01.114Z,98.30
2019-05-26T21:25:29.147Z,98.10
2019-05-26T21:27:56.796Z,98.10
2019-05-26T21:30:24.543Z,98.10
2019-05-26T21:32:52.526Z,98.30
2019-05-26T21:35:20.274Z,98.30
2019-05-26T21:37:47.965Z,98.20
2019-05-26T21:40:15.712Z,98.30
2019-05-26T21:42:43.355Z,98.20
2019-05-26T21:45:11.103Z,98.20
2019-05-26T21:47:38.746Z,98.30
2019-05-26T21:50:09.734Z,98.50
2019-05-26T21:52:37.471Z,99.00
2019-05-26T21:55:05.322Z,99.80
2019-05-26T21:57:33.244Z,99.20
2019-05-26T22:00:01.607Z,98.90
2019-05-26T22:02:29.248Z,98.60
2019-05-26T22:04:56.927Z,98.60
2019-05-26T22:07:24.916Z,98.90
2019-05-26T22:09:52.599Z,98.80
2019-05-26T22:12:20.240Z,98.90
2019-05-26T22:14:47.924Z,98.90
2019-05-26T22:17:15.871Z,99.20
2019-05-26T22:19:43.574Z,99.00
2019-05-26T22:22:11.224Z,99.10
2019-05-26T22:24:38.902Z,99.20
2019-05-26T22:27:06.569Z,98.90
2019-05-26T22:29:34.752Z,98.80
2019-05-26T22:32:02.387Z,98.90
2019-05-26T22:34:30.032Z,99.00
2019-05-26T22:36:57.710Z,98.90
2019-05-26T22:39:25.351Z,98.80
2019-05-26T22:41:53.346Z,98.80
2019-05-26T22:44:20.979Z,98.90
2019-05-26T22:46:48.664Z,98.90
2019-05-26T22:49:16.295Z,99.30
2019-05-26T22:51:43.996Z,99.10
2019-05-26T22:54:11.847Z,99.00
2019-05-26T22:56:39.947Z,98.90
2019-05-26T22:59:07.602Z,99.30
2019-05-26T23:01:35.335Z,99.10
2019-05-26T23:04:03.679Z,99.30
2019-05-26T23:06:31.491Z,99.30
2019-05-26T23:08:59.476Z,99.30
2019-05-26T23:11:27.163Z,99.50
2019-05-26T23:13:54.803Z,99.40
2019-05-26T23:16:22.482Z,99.50
2019-05-26T23:18:50.123Z,99.50
2019-05-26T23:21:17.812Z,99.60
2019-05-26T23:23:45.450Z,99.70
2019-05-26T23:26:13.131Z,99.50
2019-05-26T23:28:40.773Z,99.20
2019-05-26T23:31:08.446Z,99.20
2019-05-26T23:33:36.412Z,99.40
2019-05-26T23:36:04.048Z,99.40
2019-05-26T23:38:31.718Z,99.70
2019-05-26T23:40:59.367Z,99.70
2019-05-26T23:43:27.038Z,99.60
2019-05-26T23:45:54.674Z,99.60
2019-05-26T23:48:22.363Z,99.90
2019-05-26T23:50:49.997Z,99.90
2019-05-26T23:53:17.670Z,99.70
2019-05-26T23:55:45.308Z,99.70
2019-05-26T23:58:12.986Z,99.90
